createdAt,value
2023-05-07T00:02:18.169Z,13.22
2023-05-07T00:04:45.664Z,13.16
2023-05-07T00:07:13.206Z,13.00
2023-05-07T00:09:40.866Z,13.02
2023-05-07T00:12:09.778Z,12.87
2023-05-07T00:14:37.269Z,12.94
2023-05-07T00:17:04.739Z,13.05
2023-05-07T00:19:32.770Z,13.11
2023-05-07T00:22:00.432Z,12.95
2023-05-07T00:24:27.947Z,12.41
2023-05-07T00:26:55.454Z,12.41
2023-05-07T00:29:24.260Z,12.78
2023-05-07T00:31:52.011Z,12.80
2023-05-07T00:34:20.990Z,12.30
2023-05-07T00:36:48.460Z,12.38
2023-05-07T00:39:16.073Z,12.05
2023-05-07T00:41:43.627Z,12.15
2023-05-07T00:44:11.124Z,12.01
2023-05-07T00:46:40.030Z,12.56
2023-05-07T00:49:07.634Z,12.39
2023-05-07T00:51:35.288Z,12.49
2023-05-07T00:54:04.609Z,12.71
2023-05-07T00:56:33.639Z,12.96
2023-05-07T00:59:03.505Z,12.95
2023-05-07T01:01:31.227Z,13.07
2023-05-07T01:04:00.156Z,12.64
2023-05-07T01:06:29.340Z,12.59
2023-05-07T01:08:58.426Z,12.79
2023-05-07T01:11:26.678Z,12.61
2023-05-07T01:13:55.015Z,12.12
2023-05-07T01:16:22.890Z,12.18
2023-05-07T01:18:50.476Z,12.28
2023-05-07T01:21:20.229Z,12.28
2023-05-07T01:23:49.551Z,12.88
2023-05-07T01:26:17.250Z,13.21
2023-05-07T01:28:44.814Z,13.07
2023-05-07T01:31:14.435Z,12.93
2023-05-07T01:33:46.405Z,12.86
2023-05-07T01:36:16.085Z,12.55
2023-05-07T01:38:44.299Z,12.73
2023-05-07T01:41:13.990Z,12.62
2023-05-07T01:43:43.200Z,12.89
2023-05-07T01:46:12.113Z,12.66
2023-05-07T01:48:40.609Z,13.42
2023-05-07T01:51:08.247Z,13.31
2023-05-07T01:53:38.026Z,13.29
2023-05-07T01:56:06.273Z,13.19
2023-05-07T01:58:35.218Z,13.59
2023-05-07T02:01:02.677Z,13.44
2023-05-07T02:03:30.505Z,13.56
2023-05-07T02:05:58.069Z,13.50
2023-05-07T02:08:25.733Z,13.79
2023-05-07T02:10:54.813Z,13.27
2023-05-07T02:13:23.285Z,13.02
2023-05-07T02:15:52.357Z,13.55
2023-05-07T02:18:19.921Z,13.83
2023-05-07T02:20:47.376Z,13.61
2023-05-07T02:23:14.831Z,13.30
2023-05-07T02:25:42.436Z,13.08
2023-05-07T02:28:09.875Z,12.98
2023-05-07T02:30:38.752Z,13.54
2023-05-07T02:33:09.231Z,13.63
2023-05-07T02:35:37.087Z,12.83
2023-05-07T02:38:04.573Z,13.18
2023-05-07T02:40:34.555Z,12.84
2023-05-07T02:43:02.033Z,12.90
2023-05-07T02:45:29.517Z,12.47
2023-05-07T02:47:57.020Z,12.45
2023-05-07T02:50:26.163Z,12.25
2023-05-07T02:52:53.606Z,12.23
2023-05-07T02:55:21.085Z,12.37
2023-05-07T02:57:48.572Z,12.45
2023-05-07T03:00:18.704Z,12.54
2023-05-07T03:02:46.274Z,12.45
2023-05-07T03:05:15.253Z,12.80
2023-05-07T03:07:46.200Z,12.60
2023-05-07T03:10:13.755Z,12.32
2023-05-07T03:12:41.413Z,12.47
2023-05-07T03:15:10.306Z,12.60
2023-05-07T03:17:37.749Z,12.29
2023-05-07T03:20:06.216Z,12.16
2023-05-07T03:22:33.756Z,12.13
2023-05-07T03:25:02.635Z,12.20
2023-05-07T03:27:30.092Z,12.35
2023-05-07T03:29:57.609Z,11.94
2023-05-07T03:32:25.167Z,12.03
2023-05-07T03:34:52.731Z,12.60
2023-05-07T03:37:20.507Z,13.08
2023-05-07T03:39:47.955Z,12.68
2023-05-07T03:42:16.840Z,12.37
2023-05-07T03:44:44.323Z,12.18
2023-05-07T03:47:12.107Z,12.41
2023-05-07T03:49:39.598Z,12.32
2023-05-07T03:52:07.257Z,12.59
2023-05-07T03:54:34.771Z,12.46
2023-05-07T03:57:02.683Z,12.70
2023-05-07T03:59:31.480Z,12.01
2023-05-07T04:02:00.864Z,11.65
2023-05-07T04:04:33.703Z,11.96
2023-05-07T04:07:01.433Z,12.03
2023-05-07T04:09:29.019Z,12.40
2023-05-07T04:11:56.477Z,12.31
2023-05-07T04:14:23.951Z,12.28
2023-05-07T04:16:52.764Z,12.85
2023-05-07T04:19:20.296Z,12.85
2023-05-07T04:21:47.741Z,12.67
2023-05-07T04:24:15.193Z,12.97
2023-05-07T04:26:42.630Z,13.27
2023-05-07T04:29:10.109Z,13.61
2023-05-07T04:31:37.669Z,13.90
2023-05-07T04:34:06.544Z,14.00
2023-05-07T04:36:34.768Z,13.77
2023-05-07T04:39:02.337Z,14.14
2023-05-07T04:41:29.817Z,13.71
2023-05-07T04:43:57.885Z,14.15
2023-05-07T04:46:25.985Z,14.04
2023-05-07T04:48:53.506Z,14.10
2023-05-07T04:51:22.304Z,14.73
2023-05-07T04:53:51.442Z,15.39
2023-05-07T04:56:18.880Z,15.92
2023-05-07T04:58:46.356Z,17.45
2023-05-07T05:01:13.859Z,17.85
2023-05-07T05:03:41.893Z,18.81
2023-05-07T05:06:09.564Z,19.06
2023-05-07T05:08:38.383Z,18.69
2023-05-07T05:11:05.903Z,18.27
2023-05-07T05:13:33.385Z,17.96
2023-05-07T05:16:01.037Z,18.13
2023-05-07T05:18:28.593Z,16.21
2023-05-07T05:20:56.028Z,16.63
2023-05-07T05:23:23.484Z,17.11
2023-05-07T05:25:52.285Z,15.98
2023-05-07T05:28:19.798Z,16.91
2023-05-07T05:30:47.344Z,18.08
2023-05-07T05:33:14.985Z,18.56
2023-05-07T05:35:42.467Z,18.88
2023-05-07T05:38:10.018Z,18.44
2023-05-07T05:40:37.454Z,18.79
2023-05-07T05:43:06.232Z,19.04
2023-05-07T05:45:33.663Z,19.26
2023-05-07T05:48:02.196Z,18.82
2023-05-07T05:50:29.669Z,18.95
2023-05-07T05:52:57.430Z,19.70
2023-05-07T05:55:25.046Z,18.96
2023-05-07T05:57:52.520Z,18.62
2023-05-07T06:00:23.321Z,17.49
2023-05-07T06:02:50.872Z,17.81
2023-05-07T06:05:18.696Z,17.89
2023-05-07T06:07:46.209Z,17.73
2023-05-07T06:10:13.990Z,18.58
2023-05-07T06:12:41.732Z,18.65
2023-05-07T06:15:09.677Z,17.78
2023-05-07T06:17:38.538Z,17.50
2023-05-07T06:20:07.286Z,18.01
2023-05-07T06:22:34.742Z,17.77
2023-05-07T06:25:02.308Z,17.69
2023-05-07T06:27:29.962Z,17.86
2023-05-07T06:29:57.430Z,18.25
2023-05-07T06:32:24.913Z,17.48
2023-05-07T06:34:53.757Z,17.90
2023-05-07T06:37:21.278Z,17.82
2023-05-07T06:39:48.710Z,18.17
2023-05-07T06:42:16.175Z,18.09
2023-05-07T06:44:43.632Z,18.13
2023-05-07T06:47:11.882Z,17.50
2023-05-07T06:49:40.794Z,17.99
2023-05-07T06:52:09.578Z,18.23
2023-05-07T06:54:37.083Z,18.50
2023-05-07T06:57:04.599Z,17.87
2023-05-07T06:59:32.063Z,18.03
2023-05-07T07:01:59.564Z,18.21
2023-05-07T07:04:27.150Z,18.73
2023-05-07T07:06:55.918Z,19.37
2023-05-07T07:09:24.900Z,19.14
2023-05-07T07:11:52.354Z,18.80
2023-05-07T07:14:19.812Z,19.30
2023-05-07T07:16:47.753Z,18.64
2023-05-07T07:19:16.096Z,18.73
2023-05-07T07:21:43.603Z,18.94
2023-05-07T07:24:11.045Z,18.48
2023-05-07T07:26:40.878Z,18.74
2023-05-07T07:29:08.656Z,17.84
2023-05-07T07:31:36.165Z,18.01
2023-05-07T07:34:03.657Z,18.19
2023-05-07T07:36:38.890Z,18.19
2023-05-07T07:39:13.391Z,18.46
2023-05-07T07:41:42.241Z,19.83
2023-05-07T07:44:10.542Z,20.44
2023-05-07T07:46:38.016Z,20.39
2023-05-07T07:49:05.553Z,19.11
2023-05-07T07:51:33.022Z,18.53
2023-05-07T07:54:00.658Z,18.52
2023-05-07T07:56:28.108Z,18.75
2023-05-07T07:58:56.901Z,19.16
2023-05-07T08:01:24.352Z,21.02
2023-05-07T08:03:51.943Z,22.42
2023-05-07T08:06:19.782Z,23.14
2023-05-07T08:08:47.252Z,23.93
2023-05-07T08:11:14.830Z,24.60
2023-05-07T08:13:42.326Z,25.24
2023-05-07T08:16:11.267Z,24.28
2023-05-07T08:18:38.794Z,21.65
2023-05-07T08:21:06.540Z,22.34
2023-05-07T08:23:35.392Z,21.43
2023-05-07T08:26:02.895Z,21.35
2023-05-07T08:28:30.435Z,21.60
2023-05-07T08:31:00.802Z,22.56
2023-05-07T08:33:29.730Z,23.39
2023-05-07T08:35:57.155Z,24.17
2023-05-07T08:38:24.693Z,24.42
2023-05-07T08:40:52.188Z,22.86
2023-05-07T08:43:21.410Z,23.25
2023-05-07T08:45:55.415Z,23.21
2023-05-07T08:48:26.995Z,23.12
2023-05-07T08:50:55.872Z,22.73
2023-05-07T08:53:23.527Z,21.85
2023-05-07T08:55:51.238Z,23.08
2023-05-07T08:58:18.735Z,23.47
2023-05-07T09:00:46.287Z,23.12
2023-05-07T09:03:15.056Z,22.44
2023-05-07T09:05:44.682Z,22.35
2023-05-07T09:08:16.981Z,22.27
2023-05-07T09:10:44.473Z,21.02
2023-05-07T09:13:15.445Z,21.18
2023-05-07T09:15:43.132Z,21.10
2023-05-07T09:18:10.577Z,22.31
2023-05-07T09:20:38.510Z,22.98
2023-05-07T09:23:06.109Z,22.28
2023-05-07T09:25:36.317Z,22.81
2023-05-07T09:28:05.148Z,22.37
2023-05-07T09:30:33.580Z,22.71
2023-05-07T09:33:02.125Z,23.52
2023-05-07T09:35:30.212Z,22.95
2023-05-07T09:38:01.656Z,22.81
2023-05-07T09:40:32.916Z,21.23
2023-05-07T09:43:12.618Z,21.80
2023-05-07T09:45:40.425Z,22.58
2023-05-07T09:48:08.883Z,23.82
2023-05-07T09:50:38.757Z,23.98
2023-05-07T09:53:06.809Z,25.10
2023-05-07T09:55:34.501Z,25.88
2023-05-07T09:58:03.606Z,25.61
2023-05-07T10:00:33.459Z,25.11
2023-05-07T10:03:03.457Z,24.96
2023-05-07T10:05:31.694Z,24.43
2023-05-07T10:07:59.904Z,23.64
2023-05-07T10:10:29.641Z,23.17
2023-05-07T10:12:57.402Z,24.30
2023-05-07T10:15:25.632Z,24.15
2023-05-07T10:17:55.523Z,24.21
2023-05-07T10:20:23.146Z,25.22
2023-05-07T10:22:52.056Z,23.93
2023-05-07T10:25:22.744Z,23.36
2023-05-07T10:27:54.075Z,23.95
2023-05-07T10:30:33.100Z,24.63
2023-05-07T10:33:07.553Z,24.54
2023-05-07T10:35:42.823Z,24.49
2023-05-07T10:38:10.832Z,24.55
2023-05-07T10:40:38.620Z,25.84
2023-05-07T10:43:10.253Z,26.12
2023-05-07T10:45:38.537Z,25.77
2023-05-07T10:48:27.252Z,27.00
2023-05-07T10:51:20.912Z,27.31
2023-05-07T10:53:48.366Z,28.35
2023-05-07T10:56:29.077Z,28.95
2023-05-07T10:58:56.654Z,29.10
2023-05-07T11:01:52.715Z,27.95
2023-05-07T11:04:25.642Z,27.24
2023-05-07T11:07:25.958Z,25.93
2023-05-07T11:09:59.304Z,25.98
2023-05-07T11:13:03.619Z,24.96
2023-05-07T11:15:48.069Z,22.92
2023-05-07T11:18:16.971Z,22.64
2023-05-07T11:21:00.452Z,22.61
2023-05-07T11:24:00.558Z,22.96
2023-05-07T11:26:29.724Z,23.16
2023-05-07T11:28:57.795Z,23.60
2023-05-07T11:31:28.115Z,23.16
2023-05-07T11:33:56.343Z,22.80
2023-05-07T11:36:27.037Z,23.95
2023-05-07T11:38:54.619Z,23.48
2023-05-07T11:41:22.920Z,23.66
2023-05-07T11:43:57.980Z,24.22
2023-05-07T11:46:25.571Z,24.79
2023-05-07T11:48:53.327Z,25.15
2023-05-07T11:51:21.647Z,25.21
2023-05-07T11:53:51.074Z,25.53
2023-05-07T11:56:20.240Z,24.85
2023-05-07T11:58:49.166Z,25.36
2023-05-07T12:01:17.902Z,26.33
2023-05-07T12:03:47.045Z,27.00
2023-05-07T12:06:16.931Z,24.94
2023-05-07T12:08:47.828Z,25.88
2023-05-07T12:11:19.448Z,26.32
2023-05-07T12:13:46.996Z,26.64
2023-05-07T12:16:14.744Z,27.77
2023-05-07T12:18:42.632Z,28.34
2023-05-07T12:21:10.873Z,29.20
2023-05-07T12:23:38.883Z,30.28
2023-05-07T12:26:07.633Z,29.41
2023-05-07T12:28:40.625Z,29.96
2023-05-07T12:31:08.935Z,30.03
2023-05-07T12:33:37.235Z,28.89
2023-05-07T12:36:07.742Z,28.89
2023-05-07T12:38:37.666Z,29.65
2023-05-07T12:41:06.085Z,30.00
2023-05-07T12:43:33.578Z,29.91
2023-05-07T12:46:05.717Z,30.40
2023-05-07T12:48:33.381Z,30.91
2023-05-07T12:51:02.203Z,30.76
2023-05-07T12:53:30.782Z,30.90
2023-05-07T12:56:00.529Z,31.12
2023-05-07T12:58:30.004Z,30.67
2023-05-07T13:01:00.905Z,28.01
2023-05-07T13:03:32.078Z,26.62
2023-05-07T13:06:01.129Z,26.32
2023-05-07T13:08:30.460Z,26.02
2023-05-07T13:10:59.136Z,26.50
2023-05-07T13:13:27.261Z,26.77
2023-05-07T13:15:55.943Z,27.48
2023-05-07T13:18:23.583Z,27.43
2023-05-07T13:20:52.493Z,28.32
2023-05-07T13:23:20.224Z,27.24
2023-05-07T13:25:47.717Z,28.11
2023-05-07T13:28:15.300Z,27.13
2023-05-07T13:30:42.940Z,27.53
2023-05-07T13:33:10.551Z,28.38
2023-05-07T13:35:38.630Z,27.50
2023-05-07T13:38:07.479Z,27.26
2023-05-07T13:40:34.989Z,26.40
2023-05-07T13:43:03.083Z,25.49
2023-05-07T13:45:31.561Z,25.33
2023-05-07T13:47:59.574Z,26.13
2023-05-07T13:50:30.102Z,25.40
2023-05-07T13:52:57.681Z,25.26
2023-05-07T13:55:26.858Z,26.86
2023-05-07T13:57:58.702Z,27.52
2023-05-07T14:00:26.437Z,27.31
2023-05-07T14:02:54.237Z,27.43
2023-05-07T14:05:21.909Z,28.05
2023-05-07T14:07:52.777Z,27.39
2023-05-07T14:10:21.198Z,27.32
2023-05-07T14:12:50.171Z,26.75
2023-05-07T14:15:18.125Z,27.57
2023-05-07T14:17:46.353Z,27.37
2023-05-07T14:20:14.526Z,26.72
2023-05-07T14:22:42.227Z,26.93
2023-05-07T14:25:11.518Z,27.98
2023-05-07T14:27:39.304Z,27.61
2023-05-07T14:30:09.461Z,26.83
2023-05-07T14:32:37.068Z,26.70
2023-05-07T14:35:04.985Z,25.90
2023-05-07T14:37:32.473Z,25.40
2023-05-07T14:39:59.957Z,25.42
2023-05-07T14:42:27.428Z,25.83
2023-05-07T14:44:54.884Z,26.19
2023-05-07T14:47:23.712Z,26.29
2023-05-07T14:49:51.188Z,25.47
2023-05-07T14:52:18.794Z,25.80
2023-05-07T14:54:46.275Z,25.40
2023-05-07T14:57:17.050Z,24.86
2023-05-07T14:59:44.665Z,24.31
2023-05-07T15:02:13.533Z,23.17
2023-05-07T15:04:46.805Z,22.95
2023-05-07T15:07:15.942Z,22.82
2023-05-07T15:09:43.486Z,22.73
2023-05-07T15:12:11.292Z,22.78
2023-05-07T15:14:39.401Z,22.70
2023-05-07T15:17:06.889Z,22.73
2023-05-07T15:19:34.459Z,22.73
2023-05-07T15:22:03.843Z,22.54
2023-05-07T15:24:31.745Z,22.71
2023-05-07T15:27:00.150Z,23.42
2023-05-07T15:29:27.686Z,23.44
2023-05-07T15:31:55.416Z,22.66
2023-05-07T15:34:24.941Z,22.41
2023-05-07T15:36:52.392Z,22.34
2023-05-07T15:39:22.972Z,22.36
2023-05-07T15:41:51.954Z,22.42
2023-05-07T15:44:19.466Z,22.21
2023-05-07T15:46:47.344Z,22.30
2023-05-07T15:49:15.001Z,22.05
2023-05-07T15:51:42.458Z,21.80
2023-05-07T15:54:09.956Z,21.79
2023-05-07T15:56:38.851Z,21.60
2023-05-07T15:59:06.363Z,21.33
2023-05-07T16:01:33.934Z,21.04
2023-05-07T16:04:01.606Z,21.21
2023-05-07T16:06:29.071Z,21.56
2023-05-07T16:08:56.545Z,21.60
2023-05-07T16:11:24.006Z,21.46
2023-05-07T16:13:52.838Z,21.86
2023-05-07T16:16:20.440Z,22.19
2023-05-07T16:18:48.013Z,22.25
2023-05-07T16:21:15.474Z,21.15
2023-05-07T16:23:43.242Z,21.29
2023-05-07T16:26:10.725Z,21.02
2023-05-07T16:28:38.547Z,20.93
2023-05-07T16:31:08.530Z,21.11
2023-05-07T16:33:36.141Z,21.17
2023-05-07T16:36:03.812Z,21.10
2023-05-07T16:38:33.086Z,21.11
2023-05-07T16:41:01.250Z,21.05
2023-05-07T16:43:28.772Z,21.15
2023-05-07T16:45:56.324Z,20.96
2023-05-07T16:48:25.175Z,20.76
2023-05-07T16:50:52.679Z,20.78
2023-05-07T16:53:20.748Z,20.91
2023-05-07T16:55:48.253Z,20.92
2023-05-07T16:58:16.297Z,20.72
2023-05-07T17:00:50.658Z,20.61
2023-05-07T17:03:19.286Z,20.59
2023-05-07T17:05:48.544Z,20.67
2023-05-07T17:08:16.044Z,20.33
2023-05-07T17:10:43.583Z,20.37
2023-05-07T17:13:11.102Z,20.04
2023-05-07T17:15:38.738Z,20.01
2023-05-07T17:18:06.834Z,20.08
2023-05-07T17:20:35.386Z,20.05
2023-05-07T17:23:04.216Z,19.59
2023-05-07T17:25:33.220Z,19.35
2023-05-07T17:28:00.734Z,19.13
2023-05-07T17:30:28.188Z,18.98
2023-05-07T17:33:03.777Z,18.81
2023-05-07T17:35:37.021Z,18.76
2023-05-07T17:38:05.918Z,18.84
2023-05-07T17:40:34.410Z,18.72
2023-05-07T17:43:02.665Z,18.56
2023-05-07T17:45:30.149Z,18.52
2023-05-07T17:47:57.697Z,18.39
2023-05-07T17:50:25.231Z,18.44
2023-05-07T17:52:52.740Z,18.35
2023-05-07T17:55:21.641Z,18.37
2023-05-07T17:57:49.169Z,18.44
2023-05-07T18:00:17.032Z,18.32
2023-05-07T18:02:44.619Z,18.07
2023-05-07T18:05:12.267Z,18.02
2023-05-07T18:07:39.789Z,17.90
2023-05-07T18:10:08.061Z,17.62
2023-05-07T18:12:36.912Z,17.62
2023-05-07T18:15:04.888Z,17.57
2023-05-07T18:17:32.352Z,17.35
2023-05-07T18:19:59.904Z,17.21
2023-05-07T18:22:27.708Z,17.11
2023-05-07T18:24:55.861Z,17.13
2023-05-07T18:27:23.550Z,16.96
2023-05-07T18:29:52.763Z,16.75
2023-05-07T18:32:21.472Z,16.65
2023-05-07T18:34:49.301Z,16.54
2023-05-07T18:37:16.966Z,16.73
2023-05-07T18:39:44.722Z,16.63
2023-05-07T18:42:12.978Z,16.45
2023-05-07T18:44:40.502Z,16.41
2023-05-07T18:47:09.314Z,16.45
2023-05-07T18:49:37.460Z,16.48
2023-05-07T18:52:05.292Z,16.16
2023-05-07T18:54:32.894Z,16.21
2023-05-07T18:57:00.455Z,16.22
2023-05-07T18:59:27.996Z,16.07
2023-05-07T19:01:55.472Z,16.08
2023-05-07T19:04:24.513Z,15.84
2023-05-07T19:06:52.134Z,15.88
2023-05-07T19:09:19.673Z,15.99
2023-05-07T19:11:47.338Z,15.91
2023-05-07T19:14:15.485Z,15.74
2023-05-07T19:16:43.048Z,15.75
2023-05-07T19:19:10.926Z,15.61
2023-05-07T19:21:39.770Z,15.54
2023-05-07T19:24:08.132Z,15.42
2023-05-07T19:26:35.590Z,15.45
2023-05-07T19:29:16.369Z,15.44
2023-05-07T19:31:45.807Z,15.42
2023-05-07T19:34:14.415Z,15.47
2023-05-07T19:36:43.408Z,15.42
2023-05-07T19:39:11.468Z,15.38
2023-05-07T19:41:38.968Z,15.34
2023-05-07T19:44:06.462Z,15.30
2023-05-07T19:46:34.031Z,15.31
2023-05-07T19:49:01.799Z,15.46
2023-05-07T19:51:32.302Z,15.43
2023-05-07T19:54:01.239Z,15.33
2023-05-07T19:56:28.813Z,15.22
2023-05-07T19:58:56.346Z,15.25
2023-05-07T20:01:23.900Z,15.23
2023-05-07T20:03:51.541Z,15.08
2023-05-07T20:06:19.365Z,15.09
2023-05-07T20:08:46.944Z,14.97
2023-05-07T20:11:15.812Z,15.05
2023-05-07T20:13:43.286Z,14.97
2023-05-07T20:16:10.955Z,14.91
2023-05-07T20:18:38.613Z,14.91
2023-05-07T20:21:06.820Z,14.77
2023-05-07T20:23:34.329Z,14.82
2023-05-07T20:26:01.820Z,14.89
2023-05-07T20:28:30.695Z,14.82
2023-05-07T20:30:58.163Z,15.06
2023-05-07T20:33:26.818Z,14.88
2023-05-07T20:35:54.293Z,14.95
2023-05-07T20:38:21.825Z,14.89
2023-05-07T20:40:49.356Z,14.74
2023-05-07T20:43:16.817Z,14.85
2023-05-07T20:45:45.809Z,14.84
2023-05-07T20:48:14.445Z,14.86
2023-05-07T20:50:42.008Z,14.85
2023-05-07T20:53:09.479Z,14.81
2023-05-07T20:55:37.021Z,15.16
2023-05-07T20:58:04.475Z,14.86
2023-05-07T21:00:31.922Z,14.76
2023-05-07T21:03:00.776Z,14.60
2023-05-07T21:05:28.711Z,14.66
2023-05-07T21:07:56.519Z,14.46
2023-05-07T21:10:23.997Z,14.48
2023-05-07T21:12:52.264Z,14.51
2023-05-07T21:15:19.795Z,14.47
2023-05-07T21:17:47.278Z,14.44
2023-05-07T21:20:16.462Z,14.46
2023-05-07T21:22:43.973Z,14.33
2023-05-07T21:25:13.344Z,14.19
2023-05-07T21:27:41.071Z,14.11
2023-05-07T21:30:09.904Z,14.06
2023-05-07T21:32:37.457Z,14.18
2023-05-07T21:35:05.645Z,14.20
2023-05-07T21:37:34.511Z,14.33
2023-05-07T21:40:01.981Z,13.97
2023-05-07T21:42:29.496Z,13.96
2023-05-07T21:44:56.965Z,13.71
2023-05-07T21:47:24.650Z,13.88
2023-05-07T21:49:52.263Z,13.90
2023-05-07T21:52:20.674Z,13.80
2023-05-07T21:54:52.829Z,13.78
2023-05-07T21:57:20.401Z,13.97
2023-05-07T21:59:47.987Z,13.89
2023-05-07T22:02:15.524Z,13.48
2023-05-07T22:04:43.303Z,13.59
2023-05-07T22:07:10.791Z,13.77
2023-05-07T22:09:38.286Z,13.83
2023-05-07T22:12:07.484Z,13.60
2023-05-07T22:14:34.960Z,13.71
2023-05-07T22:17:02.473Z,13.67
2023-05-07T22:19:30.006Z,13.44
2023-05-07T22:21:57.967Z,13.28
2023-05-07T22:24:25.442Z,12.98
2023-05-07T22:26:53.039Z,13.13
2023-05-07T22:29:23.298Z,12.86
2023-05-07T22:31:50.881Z,12.99
2023-05-07T22:34:18.560Z,12.85
2023-05-07T22:36:46.082Z,12.97
2023-05-07T22:39:13.560Z,12.98
2023-05-07T22:41:41.241Z,12.80
2023-05-07T22:44:08.679Z,12.70
2023-05-07T22:46:37.517Z,12.71
2023-05-07T22:49:05.027Z,12.64
2023-05-07T22:51:32.528Z,12.42
2023-05-07T22:54:00.046Z,12.32
2023-05-07T22:56:27.510Z,12.54
2023-05-07T22:58:55.010Z,12.63
2023-05-07T23:01:22.536Z,12.56
2023-05-07T23:03:51.392Z,12.46
2023-05-07T23:06:18.860Z,12.40
2023-05-07T23:08:46.522Z,12.65
2023-05-07T23:11:14.013Z,12.26
2023-05-07T23:13:41.509Z,12.36
2023-05-07T23:16:09.110Z,12.28
2023-05-07T23:18:36.603Z,12.20
2023-05-07T23:21:06.632Z,12.29
2023-05-07T23:23:35.390Z,12.23
2023-05-07T23:26:02.954Z,12.10
2023-05-07T23:28:30.665Z,11.90
2023-05-07T23:30:58.176Z,12.05
2023-05-07T23:33:25.737Z,12.00
2023-05-07T23:35:59.877Z,12.08
2023-05-07T23:38:28.688Z,12.09
2023-05-07T23:40:56.463Z,11.92
2023-05-07T23:43:24.277Z,11.74
2023-05-07T23:45:51.788Z,11.84
2023-05-07T23:48:19.412Z,12.03
2023-05-07T23:50:47.032Z,11.99
2023-05-07T23:53:14.487Z,11.88
2023-05-07T23:55:43.327Z,11.61
2023-05-07T23:58:10.935Z,11.93
